sensor_id;sensor_type;location;lat;lon;timestamp;temperature;humidity
51988;DHT22;38003;52.012;4.346;2022-07-06T00:00:41;19.60;50.30
51988;DHT22;38003;52.012;4.346;2022-07-06T00:03:09;19.80;50.00
51988;DHT22;38003;52.012;4.346;2022-07-06T00:05:37;19.60;49.90
51988;DHT22;38003;52.012;4.346;2022-07-06T00:08:05;19.40;50.60
51988;DHT22;38003;52.012;4.346;2022-07-06T00:10:33;19.40;51.10
51988;DHT22;38003;52.012;4.346;2022-07-06T00:13:03;19.60;51.40
51988;DHT22;38003;52.012;4.346;2022-07-06T00:15:31;19.40;51.30
51988;DHT22;38003;52.012;4.346;2022-07-06T00:17:59;19.50;50.60
51988;DHT22;38003;52.012;4.346;2022-07-06T00:20:27;19.50;50.40
51988;DHT22;38003;52.012;4.346;2022-07-06T00:22:55;19.50;50.60
51988;DHT22;38003;52.012;4.346;2022-07-06T00:25:23;19.40;51.00
51988;DHT22;38003;52.012;4.346;2022-07-06T00:27:51;19.30;52.50
51988;DHT22;38003;52.012;4.346;2022-07-06T00:30:20;19.20;51.70
51988;DHT22;38003;52.012;4.346;2022-07-06T00:32:48;19.10;52.10
51988;DHT22;38003;52.012;4.346;2022-07-06T00:35:17;19.00;52.30
51988;DHT22;38003;52.012;4.346;2022-07-06T00:37:45;18.90;52.50
51988;DHT22;38003;52.012;4.346;2022-07-06T00:40:13;18.90;52.30
51988;DHT22;38003;52.012;4.346;2022-07-06T00:42:41;18.90;52.60
51988;DHT22;38003;52.012;4.346;2022-07-06T00:45:11;19.00;52.70
51988;DHT22;38003;52.012;4.346;2022-07-06T00:47:41;19.00;52.20
51988;DHT22;38003;52.012;4.346;2022-07-06T00:50:11;19.00;52.20
51988;DHT22;38003;52.012;4.346;2022-07-06T00:52:46;18.90;51.50
51988;DHT22;38003;52.012;4.346;2022-07-06T00:55:16;19.00;51.70
51988;DHT22;38003;52.012;4.346;2022-07-06T00:57:45;19.00;51.60
51988;DHT22;38003;52.012;4.346;2022-07-06T01:00:16;18.90;52.30
51988;DHT22;38003;52.012;4.346;2022-07-06T01:02:46;18.90;52.50
51988;DHT22;38003;52.012;4.346;2022-07-06T01:05:15;18.80;52.80
51988;DHT22;38003;52.012;4.346;2022-07-06T01:07:44;19.00;53.20
51988;DHT22;38003;52.012;4.346;2022-07-06T01:10:15;18.70;53.10
51988;DHT22;38003;52.012;4.346;2022-07-06T01:12:44;18.60;53.10
51988;DHT22;38003;52.012;4.346;2022-07-06T01:15:15;18.50;53.60
51988;DHT22;38003;52.012;4.346;2022-07-06T01:17:45;18.40;53.60
51988;DHT22;38003;52.012;4.346;2022-07-06T01:20:15;18.40;53.50
51988;DHT22;38003;52.012;4.346;2022-07-06T01:22:44;18.40;53.60
51988;DHT22;38003;52.012;4.346;2022-07-06T01:25:12;18.40;53.40
51988;DHT22;38003;52.012;4.346;2022-07-06T01:27:41;18.20;53.40
51988;DHT22;38003;52.012;4.346;2022-07-06T01:30:12;18.30;53.60
51988;DHT22;38003;52.012;4.346;2022-07-06T01:32:41;18.30;53.80
51988;DHT22;38003;52.012;4.346;2022-07-06T01:35:11;18.10;54.10
51988;DHT22;38003;52.012;4.346;2022-07-06T01:37:41;18.10;54.10
51988;DHT22;38003;52.012;4.346;2022-07-06T01:40:11;18.10;54.20
51988;DHT22;38003;52.012;4.346;2022-07-06T01:42:39;18.10;54.20
51988;DHT22;38003;52.012;4.346;2022-07-06T01:45:08;18.00;54.40
51988;DHT22;38003;52.012;4.346;2022-07-06T01:47:37;17.90;54.90
51988;DHT22;38003;52.012;4.346;2022-07-06T01:50:07;17.90;54.80
51988;DHT22;38003;52.012;4.346;2022-07-06T01:52:35;17.90;54.70
51988;DHT22;38003;52.012;4.346;2022-07-06T01:55:05;17.90;54.60
51988;DHT22;38003;52.012;4.346;2022-07-06T01:57:33;17.90;54.80
51988;DHT22;38003;52.012;4.346;2022-07-06T02:00:04;17.80;54.80
51988;DHT22;38003;52.012;4.346;2022-07-06T02:02:32;17.80;54.90
51988;DHT22;38003;52.012;4.346;2022-07-06T02:05:00;17.80;54.90
51988;DHT22;38003;52.012;4.346;2022-07-06T02:07:28;17.70;55.00
51988;DHT22;38003;52.012;4.346;2022-07-06T02:09:56;17.80;55.20
51988;DHT22;38003;52.012;4.346;2022-07-06T02:12:25;17.80;54.70
51988;DHT22;38003;52.012;4.346;2022-07-06T02:14:53;17.80;54.70
51988;DHT22;38003;52.012;4.346;2022-07-06T02:17:22;17.70;54.90
51988;DHT22;38003;52.012;4.346;2022-07-06T02:19:49;17.70;55.00
51988;DHT22;38003;52.012;4.346;2022-07-06T02:22:17;17.80;54.90
51988;DHT22;38003;52.012;4.346;2022-07-06T02:24:45;17.70;55.10
51988;DHT22;38003;52.012;4.346;2022-07-06T02:27:13;17.70;55.30
51988;DHT22;38003;52.012;4.346;2022-07-06T02:29:43;17.70;55.20
51988;DHT22;38003;52.012;4.346;2022-07-06T02:32:11;17.70;56.60
51988;DHT22;38003;52.012;4.346;2022-07-06T02:34:39;17.60;55.70
51988;DHT22;38003;52.012;4.346;2022-07-06T02:37:06;17.60;56.00
51988;DHT22;38003;52.012;4.346;2022-07-06T02:39:34;17.60;55.60
51988;DHT22;38003;52.012;4.346;2022-07-06T02:42:03;17.60;55.60
51988;DHT22;38003;52.012;4.346;2022-07-06T02:44:31;17.60;55.70
51988;DHT22;38003;52.012;4.346;2022-07-06T02:47:00;17.60;55.70
51988;DHT22;38003;52.012;4.346;2022-07-06T02:49:28;17.50;55.70
51988;DHT22;38003;52.012;4.346;2022-07-06T02:51:56;17.50;55.80
51988;DHT22;38003;52.012;4.346;2022-07-06T02:54:24;17.40;56.30
51988;DHT22;38003;52.012;4.346;2022-07-06T02:56:52;17.40;56.30
51988;DHT22;38003;52.012;4.346;2022-07-06T02:59:20;17.50;56.30
51988;DHT22;38003;52.012;4.346;2022-07-06T03:01:48;17.50;56.90
51988;DHT22;38003;52.012;4.346;2022-07-06T03:04:17;17.40;57.00
51988;DHT22;38003;52.012;4.346;2022-07-06T03:06:45;17.40;56.90
51988;DHT22;38003;52.012;4.346;2022-07-06T03:09:13;17.40;56.70
51988;DHT22;38003;52.012;4.346;2022-07-06T03:11:41;17.50;56.70
51988;DHT22;38003;52.012;4.346;2022-07-06T03:14:09;17.40;56.60
51988;DHT22;38003;52.012;4.346;2022-07-06T03:16:37;17.40;56.90
51988;DHT22;38003;52.012;4.346;2022-07-06T03:19:05;17.60;56.70
51988;DHT22;38003;52.012;4.346;2022-07-06T03:21:35;17.40;56.60
51988;DHT22;38003;52.012;4.346;2022-07-06T03:24:04;17.30;56.90
51988;DHT22;38003;52.012;4.346;2022-07-06T03:26:32;17.20;57.60
51988;DHT22;38003;52.012;4.346;2022-07-06T03:29:00;17.30;57.20
51988;DHT22;38003;52.012;4.346;2022-07-06T03:31:27;17.20;57.40
51988;DHT22;38003;52.012;4.346;2022-07-06T03:33:56;17.30;57.20
51988;DHT22;38003;52.012;4.346;2022-07-06T03:36:24;17.30;57.30
51988;DHT22;38003;52.012;4.346;2022-07-06T03:38:53;17.30;57.10
51988;DHT22;38003;52.012;4.346;2022-07-06T03:41:21;17.50;57.50
51988;DHT22;38003;52.012;4.346;2022-07-06T03:43:49;17.20;57.60
51988;DHT22;38003;52.012;4.346;2022-07-06T03:46:17;17.30;57.70
51988;DHT22;38003;52.012;4.346;2022-07-06T03:48:45;17.20;57.70
51988;DHT22;38003;52.012;4.346;2022-07-06T03:51:13;17.20;57.50
51988;DHT22;38003;52.012;4.346;2022-07-06T03:53:41;17.50;57.70
51988;DHT22;38003;52.012;4.346;2022-07-06T03:56:11;17.20;58.00
51988;DHT22;38003;52.012;4.346;2022-07-06T03:59:00;17.30;57.60
51988;DHT22;38003;52.012;4.346;2022-07-06T04:01:29;17.20;57.70
51988;DHT22;38003;52.012;4.346;2022-07-06T04:03:57;17.70;57.90
51988;DHT22;38003;52.012;4.346;2022-07-06T04:06:25;17.20;58.10
51988;DHT22;38003;52.012;4.346;2022-07-06T04:08:53;17.20;58.10
51988;DHT22;38003;52.012;4.346;2022-07-06T04:11:23;17.20;58.00
51988;DHT22;38003;52.012;4.346;2022-07-06T04:13:51;17.30;57.80
51988;DHT22;38003;52.012;4.346;2022-07-06T04:16:21;17.30;57.90
51988;DHT22;38003;52.012;4.346;2022-07-06T04:18:49;17.40;58.10
51988;DHT22;38003;52.012;4.346;2022-07-06T04:21:17;17.30;58.10
51988;DHT22;38003;52.012;4.346;2022-07-06T04:23:45;17.30;57.70
51988;DHT22;38003;52.012;4.346;2022-07-06T04:26:13;17.40;57.70
51988;DHT22;38003;52.012;4.346;2022-07-06T04:28:42;17.40;57.70
51988;DHT22;38003;52.012;4.346;2022-07-06T04:31:10;17.40;57.60
51988;DHT22;38003;52.012;4.346;2022-07-06T04:33:41;17.40;57.70
51988;DHT22;38003;52.012;4.346;2022-07-06T04:36:10;17.50;57.50
51988;DHT22;38003;52.012;4.346;2022-07-06T04:38:38;17.50;57.30
51988;DHT22;38003;52.012;4.346;2022-07-06T04:41:06;17.50;57.30
51988;DHT22;38003;52.012;4.346;2022-07-06T04:43:34;17.60;57.50
51988;DHT22;38003;52.012;4.346;2022-07-06T04:46:03;17.60;57.50
51988;DHT22;38003;52.012;4.346;2022-07-06T04:48:32;17.70;57.40
51988;DHT22;38003;52.012;4.346;2022-07-06T04:51:03;17.60;57.50
51988;DHT22;38003;52.012;4.346;2022-07-06T04:53:31;17.70;57.40
51988;DHT22;38003;52.012;4.346;2022-07-06T04:55:59;17.70;57.20
51988;DHT22;38003;52.012;4.346;2022-07-06T04:58:27;17.80;57.30
51988;DHT22;38003;52.012;4.346;2022-07-06T05:00:55;17.80;57.10
51988;DHT22;38003;52.012;4.346;2022-07-06T05:03:25;17.90;56.70
51988;DHT22;38003;52.012;4.346;2022-07-06T05:05:52;17.90;56.50
51988;DHT22;38003;52.012;4.346;2022-07-06T05:08:21;18.00;56.10
51988;DHT22;38003;52.012;4.346;2022-07-06T05:10:50;18.10;55.70
51988;DHT22;38003;52.012;4.346;2022-07-06T05:13:18;18.30;55.50
51988;DHT22;38003;52.012;4.346;2022-07-06T05:15:46;18.20;55.30
51988;DHT22;38003;52.012;4.346;2022-07-06T05:18:14;18.10;55.00
51988;DHT22;38003;52.012;4.346;2022-07-06T05:20:44;18.30;54.70
51988;DHT22;38003;52.012;4.346;2022-07-06T05:23:13;18.20;54.70
51988;DHT22;38003;52.012;4.346;2022-07-06T05:25:41;18.40;54.50
51988;DHT22;38003;52.012;4.346;2022-07-06T05:28:09;18.30;54.50
51988;DHT22;38003;52.012;4.346;2022-07-06T05:30:37;18.30;54.40
51988;DHT22;38003;52.012;4.346;2022-07-06T05:33:05;18.40;54.50
51988;DHT22;38003;52.012;4.346;2022-07-06T05:35:33;18.50;54.20
51988;DHT22;38003;52.012;4.346;2022-07-06T05:38:18;18.40;54.20
51988;DHT22;38003;52.012;4.346;2022-07-06T05:40:47;18.40;53.90
51988;DHT22;38003;52.012;4.346;2022-07-06T05:43:15;18.50;53.80
51988;DHT22;38003;52.012;4.346;2022-07-06T05:45:42;18.70;53.40
51988;DHT22;38003;52.012;4.346;2022-07-06T05:48:10;18.60;53.10
51988;DHT22;38003;52.012;4.346;2022-07-06T05:50:56;19.10;53.20
51988;DHT22;38003;52.012;4.346;2022-07-06T05:53:25;18.80;53.10
51988;DHT22;38003;52.012;4.346;2022-07-06T05:55:53;18.90;52.90
51988;DHT22;38003;52.012;4.346;2022-07-06T05:58:21;18.80;52.90
51988;DHT22;38003;52.012;4.346;2022-07-06T06:00:51;18.80;52.50
51988;DHT22;38003;52.012;4.346;2022-07-06T06:03:20;19.20;52.60
51988;DHT22;38003;52.012;4.346;2022-07-06T06:05:48;19.00;52.30
51988;DHT22;38003;52.012;4.346;2022-07-06T06:08:16;19.20;52.00
51988;DHT22;38003;52.012;4.346;2022-07-06T06:10:45;18.90;51.80
51988;DHT22;38003;52.012;4.346;2022-07-06T06:13:13;18.90;52.00
51988;DHT22;38003;52.012;4.346;2022-07-06T06:15:41;19.10;51.40
51988;DHT22;38003;52.012;4.346;2022-07-06T06:18:10;19.10;51.30
51988;DHT22;38003;52.012;4.346;2022-07-06T06:20:38;19.30;51.40
51988;DHT22;38003;52.012;4.346;2022-07-06T06:23:06;19.10;51.10
51988;DHT22;38003;52.012;4.346;2022-07-06T06:25:35;19.00;51.10
51988;DHT22;38003;52.012;4.346;2022-07-06T06:28:06;19.10;51.30
51988;DHT22;38003;52.012;4.346;2022-07-06T06:30:35;19.20;51.20
51988;DHT22;38003;52.012;4.346;2022-07-06T06:33:09;19.30;50.90
51988;DHT22;38003;52.012;4.346;2022-07-06T06:35:38;19.40;50.70
51988;DHT22;38003;52.012;4.346;2022-07-06T06:38:06;19.40;50.60
51988;DHT22;38003;52.012;4.346;2022-07-06T06:40:34;19.60;50.40
51988;DHT22;38003;52.012;4.346;2022-07-06T06:43:03;19.80;50.50
51988;DHT22;38003;52.012;4.346;2022-07-06T06:45:32;19.80;50.00
51988;DHT22;38003;52.012;4.346;2022-07-06T06:48:01;19.50;50.40
51988;DHT22;38003;52.012;4.346;2022-07-06T06:50:29;19.40;49.70
51988;DHT22;38003;52.012;4.346;2022-07-06T06:52:57;19.50;49.80
51988;DHT22;38003;52.012;4.346;2022-07-06T06:55:25;19.60;49.80
51988;DHT22;38003;52.012;4.346;2022-07-06T06:57:53;20.00;50.10
51988;DHT22;38003;52.012;4.346;2022-07-06T07:00:21;19.70;49.50
51988;DHT22;38003;52.012;4.346;2022-07-06T07:02:50;19.70;49.10
51988;DHT22;38003;52.012;4.346;2022-07-06T07:05:18;19.70;48.90
51988;DHT22;38003;52.012;4.346;2022-07-06T07:07:46;19.80;49.10
51988;DHT22;38003;52.012;4.346;2022-07-06T07:10:14;19.80;48.80
51988;DHT22;38003;52.012;4.346;2022-07-06T07:12:44;19.90;48.80
51988;DHT22;38003;52.012;4.346;2022-07-06T07:15:12;19.90;48.70
51988;DHT22;38003;52.012;4.346;2022-07-06T07:17:41;20.10;48.60
51988;DHT22;38003;52.012;4.346;2022-07-06T07:20:11;20.10;47.70
51988;DHT22;38003;52.012;4.346;2022-07-06T07:22:39;20.20;47.60
51988;DHT22;38003;52.012;4.346;2022-07-06T07:25:08;20.30;47.90
51988;DHT22;38003;52.012;4.346;2022-07-06T07:27:36;20.30;47.50
51988;DHT22;38003;52.012;4.346;2022-07-06T07:30:05;20.20;46.80
51988;DHT22;38003;52.012;4.346;2022-07-06T07:32:33;20.30;47.30
51988;DHT22;38003;52.012;4.346;2022-07-06T07:35:02;20.40;47.30
51988;DHT22;38003;52.012;4.346;2022-07-06T07:37:31;20.30;46.90
51988;DHT22;38003;52.012;4.346;2022-07-06T07:39:59;20.30;45.80
51988;DHT22;38003;52.012;4.346;2022-07-06T07:42:27;20.30;45.50
51988;DHT22;38003;52.012;4.346;2022-07-06T07:44:55;20.30;46.00
51988;DHT22;38003;52.012;4.346;2022-07-06T07:47:24;20.50;45.70
51988;DHT22;38003;52.012;4.346;2022-07-06T07:49:52;20.40;45.00
51988;DHT22;38003;52.012;4.346;2022-07-06T07:52:19;20.40;44.90
51988;DHT22;38003;52.012;4.346;2022-07-06T07:54:49;20.30;44.20
51988;DHT22;38003;52.012;4.346;2022-07-06T07:57:37;20.60;45.00
51988;DHT22;38003;52.012;4.346;2022-07-06T08:00:07;20.60;44.90
51988;DHT22;38003;52.012;4.346;2022-07-06T08:02:35;20.70;45.10
51988;DHT22;38003;52.012;4.346;2022-07-06T08:05:04;20.80;45.10
51988;DHT22;38003;52.012;4.346;2022-07-06T08:07:32;20.80;44.50
51988;DHT22;38003;52.012;4.346;2022-07-06T08:10:02;20.80;43.90
51988;DHT22;38003;52.012;4.346;2022-07-06T08:12:30;20.90;44.40
51988;DHT22;38003;52.012;4.346;2022-07-06T08:14:58;20.90;44.20
51988;DHT22;38003;52.012;4.346;2022-07-06T08:17:26;20.90;43.50
51988;DHT22;38003;52.012;4.346;2022-07-06T08:19:54;20.80;43.90
51988;DHT22;38003;52.012;4.346;2022-07-06T08:22:22;20.90;44.30
51988;DHT22;38003;52.012;4.346;2022-07-06T08:24:50;20.90;43.30
51988;DHT22;38003;52.012;4.346;2022-07-06T08:27:19;20.70;42.90
51988;DHT22;38003;52.012;4.346;2022-07-06T08:29:47;20.80;43.30
51988;DHT22;38003;52.012;4.346;2022-07-06T08:32:16;20.90;43.40
51988;DHT22;38003;52.012;4.346;2022-07-06T08:35:00;20.90;43.70
51988;DHT22;38003;52.012;4.346;2022-07-06T08:37:28;21.00;43.70
51988;DHT22;38003;52.012;4.346;2022-07-06T08:39:56;21.10;44.10
51988;DHT22;38003;52.012;4.346;2022-07-06T08:42:29;21.10;43.70
51988;DHT22;38003;52.012;4.346;2022-07-06T08:44:58;21.10;43.90
51988;DHT22;38003;52.012;4.346;2022-07-06T08:47:27;21.20;44.40
51988;DHT22;38003;52.012;4.346;2022-07-06T08:49:55;21.20;43.90
51988;DHT22;38003;52.012;4.346;2022-07-06T08:52:24;21.00;43.30
51988;DHT22;38003;52.012;4.346;2022-07-06T08:54:52;21.10;44.10
51988;DHT22;38003;52.012;4.346;2022-07-06T08:57:21;21.10;43.80
51988;DHT22;38003;52.012;4.346;2022-07-06T08:59:51;21.20;43.10
51988;DHT22;38003;52.012;4.346;2022-07-06T09:02:19;21.20;43.30
51988;DHT22;38003;52.012;4.346;2022-07-06T09:04:51;21.30;43.50
51988;DHT22;38003;52.012;4.346;2022-07-06T09:07:21;21.40;43.60
51988;DHT22;38003;52.012;4.346;2022-07-06T09:10:10;21.30;43.50
51988;DHT22;38003;52.012;4.346;2022-07-06T09:12:38;21.40;43.60
51988;DHT22;38003;52.012;4.346;2022-07-06T09:15:08;21.50;43.40
51988;DHT22;38003;52.012;4.346;2022-07-06T09:17:38;21.60;43.50
51988;DHT22;38003;52.012;4.346;2022-07-06T09:20:07;21.50;42.90
51988;DHT22;38003;52.012;4.346;2022-07-06T09:22:36;21.60;42.90
51988;DHT22;38003;52.012;4.346;2022-07-06T09:25:06;21.60;43.10
51988;DHT22;38003;52.012;4.346;2022-07-06T09:27:37;21.60;43.20
51988;DHT22;38003;52.012;4.346;2022-07-06T09:30:08;21.60;42.50
51988;DHT22;38003;52.012;4.346;2022-07-06T09:32:40;21.40;41.90
51988;DHT22;38003;52.012;4.346;2022-07-06T09:35:19;21.30;42.60
51988;DHT22;38003;52.012;4.346;2022-07-06T09:37:50;21.40;41.40
51988;DHT22;38003;52.012;4.346;2022-07-06T09:40:27;21.50;42.50
51988;DHT22;38003;52.012;4.346;2022-07-06T09:43:07;21.50;42.80
51988;DHT22;38003;52.012;4.346;2022-07-06T09:45:38;21.50;42.60
51988;DHT22;38003;52.012;4.346;2022-07-06T09:48:08;21.60;42.50
51988;DHT22;38003;52.012;4.346;2022-07-06T09:50:40;21.70;42.50
51988;DHT22;38003;52.012;4.346;2022-07-06T09:53:10;21.70;42.40
51988;DHT22;38003;52.012;4.346;2022-07-06T09:55:38;21.80;43.00
51988;DHT22;38003;52.012;4.346;2022-07-06T09:58:06;21.80;42.60
51988;DHT22;38003;52.012;4.346;2022-07-06T10:00:34;21.80;41.10
51988;DHT22;38003;52.012;4.346;2022-07-06T10:03:04;21.70;41.70
51988;DHT22;38003;52.012;4.346;2022-07-06T10:05:33;21.90;41.80
51988;DHT22;38003;52.012;4.346;2022-07-06T10:08:01;22.00;41.80
51988;DHT22;38003;52.012;4.346;2022-07-06T10:10:32;22.10;42.10
51988;DHT22;38003;52.012;4.346;2022-07-06T10:13:01;22.00;40.00
51988;DHT22;38003;52.012;4.346;2022-07-06T10:15:30;22.00;40.70
51988;DHT22;38003;52.012;4.346;2022-07-06T10:18:00;21.90;40.90
51988;DHT22;38003;52.012;4.346;2022-07-06T10:20:31;22.10;41.00
51988;DHT22;38003;52.012;4.346;2022-07-06T10:23:01;22.30;41.00
51988;DHT22;38003;52.012;4.346;2022-07-06T10:25:29;22.50;41.40
51988;DHT22;38003;52.012;4.346;2022-07-06T10:27:59;22.60;41.70
51988;DHT22;38003;52.012;4.346;2022-07-06T10:30:28;22.60;42.20
51988;DHT22;38003;52.012;4.346;2022-07-06T10:32:58;22.80;41.50
51988;DHT22;38003;52.012;4.346;2022-07-06T10:35:27;22.80;41.30
51988;DHT22;38003;52.012;4.346;2022-07-06T10:38:07;22.60;40.90
51988;DHT22;38003;52.012;4.346;2022-07-06T10:40:36;22.80;40.30
51988;DHT22;38003;52.012;4.346;2022-07-06T10:43:21;22.90;41.30
51988;DHT22;38003;52.012;4.346;2022-07-06T10:45:50;22.90;40.80
51988;DHT22;38003;52.012;4.346;2022-07-06T10:48:20;23.10;41.20
51988;DHT22;38003;52.012;4.346;2022-07-06T10:50:52;23.20;41.00
51988;DHT22;38003;52.012;4.346;2022-07-06T10:53:25;23.20;40.70
51988;DHT22;38003;52.012;4.346;2022-07-06T10:55:54;23.50;41.30
51988;DHT22;38003;52.012;4.346;2022-07-06T10:58:37;23.50;40.30
51988;DHT22;38003;52.012;4.346;2022-07-06T11:01:08;23.40;40.50
51988;DHT22;38003;52.012;4.346;2022-07-06T11:03:38;23.40;40.70
51988;DHT22;38003;52.012;4.346;2022-07-06T11:06:08;23.30;40.40
51988;DHT22;38003;52.012;4.346;2022-07-06T11:08:49;23.60;40.30
51988;DHT22;38003;52.012;4.346;2022-07-06T11:11:19;23.70;40.40
51988;DHT22;38003;52.012;4.346;2022-07-06T11:13:50;23.90;41.00
51988;DHT22;38003;52.012;4.346;2022-07-06T11:16:19;24.00;40.00
51988;DHT22;38003;52.012;4.346;2022-07-06T11:18:49;24.10;39.90
51988;DHT22;38003;52.012;4.346;2022-07-06T11:21:19;24.10;40.20
51988;DHT22;38003;52.012;4.346;2022-07-06T11:23:50;24.20;39.20
51988;DHT22;38003;52.012;4.346;2022-07-06T11:26:18;24.40;39.60
51988;DHT22;38003;52.012;4.346;2022-07-06T11:28:47;24.60;39.60
51988;DHT22;38003;52.012;4.346;2022-07-06T11:31:16;24.60;38.80
51988;DHT22;38003;52.012;4.346;2022-07-06T11:33:47;24.50;39.00
51988;DHT22;38003;52.012;4.346;2022-07-06T11:36:16;24.70;39.30
51988;DHT22;38003;52.012;4.346;2022-07-06T11:38:45;24.50;38.20
51988;DHT22;38003;52.012;4.346;2022-07-06T11:41:16;24.80;39.70
51988;DHT22;38003;52.012;4.346;2022-07-06T11:43:45;24.90;39.70
51988;DHT22;38003;52.012;4.346;2022-07-06T11:46:20;25.00;38.90
51988;DHT22;38003;52.012;4.346;2022-07-06T11:48:49;24.60;38.80
51988;DHT22;38003;52.012;4.346;2022-07-06T11:51:17;24.40;38.50
51988;DHT22;38003;52.012;4.346;2022-07-06T11:53:46;24.40;39.20
51988;DHT22;38003;52.012;4.346;2022-07-06T11:56:23;24.40;38.60
51988;DHT22;38003;52.012;4.346;2022-07-06T11:58:54;24.40;39.60
51988;DHT22;38003;52.012;4.346;2022-07-06T12:01:24;24.40;39.60
51988;DHT22;38003;52.012;4.346;2022-07-06T12:03:57;24.40;40.70
51988;DHT22;38003;52.012;4.346;2022-07-06T12:06:26;24.50;39.00
51988;DHT22;38003;52.012;4.346;2022-07-06T12:08:57;24.30;39.50
51988;DHT22;38003;52.012;4.346;2022-07-06T12:11:28;24.40;39.40
51988;DHT22;38003;52.012;4.346;2022-07-06T12:14:00;24.30;39.40
51988;DHT22;38003;52.012;4.346;2022-07-06T12:16:30;24.30;39.90
51988;DHT22;38003;52.012;4.346;2022-07-06T12:19:01;24.20;40.00
51988;DHT22;38003;52.012;4.346;2022-07-06T12:21:33;24.10;40.70
51988;DHT22;38003;52.012;4.346;2022-07-06T12:24:07;24.00;40.50
51988;DHT22;38003;52.012;4.346;2022-07-06T12:26:40;24.00;40.40
51988;DHT22;38003;52.012;4.346;2022-07-06T12:29:12;23.90;40.80
51988;DHT22;38003;52.012;4.346;2022-07-06T12:31:43;23.80;41.40
51988;DHT22;38003;52.012;4.346;2022-07-06T12:34:16;23.70;41.50
51988;DHT22;38003;52.012;4.346;2022-07-06T12:36:45;23.70;41.60
51988;DHT22;38003;52.012;4.346;2022-07-06T12:39:14;23.70;41.50
51988;DHT22;38003;52.012;4.346;2022-07-06T12:41:49;24.00;41.30
51988;DHT22;38003;52.012;4.346;2022-07-06T12:44:19;24.20;41.30
51988;DHT22;38003;52.012;4.346;2022-07-06T12:46:48;23.80;41.00
51988;DHT22;38003;52.012;4.346;2022-07-06T12:49:19;23.90;41.30
51988;DHT22;38003;52.012;4.346;2022-07-06T12:51:55;24.00;40.60
51988;DHT22;38003;52.012;4.346;2022-07-06T12:54:25;24.00;41.40
51988;DHT22;38003;52.012;4.346;2022-07-06T12:57:04;24.00;41.20
51988;DHT22;38003;52.012;4.346;2022-07-06T12:59:36;24.10;42.20
51988;DHT22;38003;52.012;4.346;2022-07-06T13:02:06;24.30;41.90
51988;DHT22;38003;52.012;4.346;2022-07-06T13:04:35;24.30;42.20
51988;DHT22;38003;52.012;4.346;2022-07-06T13:07:04;24.00;42.10
51988;DHT22;38003;52.012;4.346;2022-07-06T13:09:34;23.90;43.30
51988;DHT22;38003;52.012;4.346;2022-07-06T13:12:04;24.00;43.70
51988;DHT22;38003;52.012;4.346;2022-07-06T13:14:32;24.30;43.80
51988;DHT22;38003;52.012;4.346;2022-07-06T13:17:00;24.20;43.30
51988;DHT22;38003;52.012;4.346;2022-07-06T13:19:29;24.20;43.60
51988;DHT22;38003;52.012;4.346;2022-07-06T13:21:57;24.10;43.90
51988;DHT22;38003;52.012;4.346;2022-07-06T13:24:25;23.90;43.70
51988;DHT22;38003;52.012;4.346;2022-07-06T13:26:54;24.00;43.40
51988;DHT22;38003;52.012;4.346;2022-07-06T13:29:24;24.00;44.00
51988;DHT22;38003;52.012;4.346;2022-07-06T13:31:52;24.10;44.30
51988;DHT22;38003;52.012;4.346;2022-07-06T13:34:20;24.10;44.50
51988;DHT22;38003;52.012;4.346;2022-07-06T13:36:49;24.00;44.30
51988;DHT22;38003;52.012;4.346;2022-07-06T13:39:17;23.70;44.50
51988;DHT22;38003;52.012;4.346;2022-07-06T13:41:45;23.60;45.00
51988;DHT22;38003;52.012;4.346;2022-07-06T13:44:13;23.60;45.20
51988;DHT22;38003;52.012;4.346;2022-07-06T13:46:43;23.40;45.20
51988;DHT22;38003;52.012;4.346;2022-07-06T13:49:11;23.50;45.30
51988;DHT22;38003;52.012;4.346;2022-07-06T13:51:39;23.40;45.40
51988;DHT22;38003;52.012;4.346;2022-07-06T13:54:08;23.30;45.60
51988;DHT22;38003;52.012;4.346;2022-07-06T13:56:39;23.30;46.30
51988;DHT22;38003;52.012;4.346;2022-07-06T13:59:07;23.30;46.60
51988;DHT22;38003;52.012;4.346;2022-07-06T14:01:35;23.30;47.80
51988;DHT22;38003;52.012;4.346;2022-07-06T14:04:04;23.10;47.30
51988;DHT22;38003;52.012;4.346;2022-07-06T14:06:33;23.10;47.50
51988;DHT22;38003;52.012;4.346;2022-07-06T14:09:01;23.00;47.60
51988;DHT22;38003;52.012;4.346;2022-07-06T14:11:29;23.30;47.30
51988;DHT22;38003;52.012;4.346;2022-07-06T14:13:57;23.40;47.70
51988;DHT22;38003;52.012;4.346;2022-07-06T14:16:25;23.30;47.20
51988;DHT22;38003;52.012;4.346;2022-07-06T14:18:54;23.40;46.40
51988;DHT22;38003;52.012;4.346;2022-07-06T14:21:23;23.60;46.70
51988;DHT22;38003;52.012;4.346;2022-07-06T14:23:51;23.60;47.00
51988;DHT22;38003;52.012;4.346;2022-07-06T14:26:19;23.60;46.20
51988;DHT22;38003;52.012;4.346;2022-07-06T14:28:47;23.60;46.50
51988;DHT22;38003;52.012;4.346;2022-07-06T14:31:15;23.60;45.90
51988;DHT22;38003;52.012;4.346;2022-07-06T14:33:48;23.50;46.30
51988;DHT22;38003;52.012;4.346;2022-07-06T14:36:16;23.60;46.10
51988;DHT22;38003;52.012;4.346;2022-07-06T14:38:46;23.70;46.30
51988;DHT22;38003;52.012;4.346;2022-07-06T14:41:14;23.60;46.30
51988;DHT22;38003;52.012;4.346;2022-07-06T14:43:42;23.70;46.40
51988;DHT22;38003;52.012;4.346;2022-07-06T14:46:10;23.70;46.20
51988;DHT22;38003;52.012;4.346;2022-07-06T14:48:38;23.70;46.00
51988;DHT22;38003;52.012;4.346;2022-07-06T14:51:06;23.70;45.70
51988;DHT22;38003;52.012;4.346;2022-07-06T14:53:34;23.50;45.70
51988;DHT22;38003;52.012;4.346;2022-07-06T14:56:03;23.20;46.50
51988;DHT22;38003;52.012;4.346;2022-07-06T14:58:31;23.50;46.40
51988;DHT22;38003;52.012;4.346;2022-07-06T15:01:00;23.60;46.10
51988;DHT22;38003;52.012;4.346;2022-07-06T15:03:29;23.60;45.80
51988;DHT22;38003;52.012;4.346;2022-07-06T15:05:58;23.40;45.10
51988;DHT22;38003;52.012;4.346;2022-07-06T15:08:26;23.30;45.20
51988;DHT22;38003;52.012;4.346;2022-07-06T15:10:54;23.30;45.10
51988;DHT22;38003;52.012;4.346;2022-07-06T15:13:23;23.40;45.30
51988;DHT22;38003;52.012;4.346;2022-07-06T15:15:51;23.50;45.40
51988;DHT22;38003;52.012;4.346;2022-07-06T15:18:25;23.50;45.40
51988;DHT22;38003;52.012;4.346;2022-07-06T15:20:54;23.50;45.20
51988;DHT22;38003;52.012;4.346;2022-07-06T15:23:22;23.40;45.10
51988;DHT22;38003;52.012;4.346;2022-07-06T15:25:51;23.40;45.20
51988;DHT22;38003;52.012;4.346;2022-07-06T15:28:23;23.30;45.60
51988;DHT22;38003;52.012;4.346;2022-07-06T15:30:54;23.30;45.50
51988;DHT22;38003;52.012;4.346;2022-07-06T15:33:22;23.40;45.80
51988;DHT22;38003;52.012;4.346;2022-07-06T15:35:51;23.30;46.30
51988;DHT22;38003;52.012;4.346;2022-07-06T15:38:19;23.40;46.40
51988;DHT22;38003;52.012;4.346;2022-07-06T15:40:56;23.40;46.50
51988;DHT22;38003;52.012;4.346;2022-07-06T15:43:31;23.40;46.70